createdAt,value
2022-12-17T00:02:16.577Z,99942.50
2022-12-17T00:05:07.658Z,99949.34
2022-12-17T00:07:53.212Z,99947.63
2022-12-17T00:10:40.799Z,99950.22
2022-12-17T00:13:37.715Z,99952.78
2022-12-17T00:16:24.779Z,99943.38
2022-12-17T00:19:12.491Z,99949.34
2022-12-17T00:21:58.450Z,99945.94
2022-12-17T00:24:44.599Z,99936.50
2022-12-17T00:27:30.473Z,99923.66
2022-12-17T00:30:16.459Z,99929.63
2022-12-17T00:33:03.532Z,99931.38
2022-12-17T00:35:50.540Z,99933.94
2022-12-17T00:38:36.565Z,99945.06
2022-12-17T00:41:22.696Z,99956.22
2022-12-17T00:44:08.786Z,99963.91
2022-12-17T00:46:55.671Z,99969.88
2022-12-17T00:49:41.754Z,99973.31
2022-12-17T00:52:29.637Z,99975.03
2022-12-17T00:55:15.897Z,99968.16
2022-12-17T00:58:01.681Z,99968.19
2022-12-17T01:00:48.838Z,99977.59
2022-12-17T01:03:34.798Z,99983.59
2022-12-17T01:06:21.848Z,99982.72
2022-12-17T01:09:09.028Z,99981.88
2022-12-17T01:11:56.392Z,99987.88
2022-12-17T01:14:43.221Z,99987.00
2022-12-17T01:17:29.707Z,99992.16
2022-12-17T01:20:16.324Z,99985.28
2022-12-17T01:23:04.452Z,99985.28
2022-12-17T01:25:51.399Z,99993.00
2022-12-17T01:28:41.325Z,99995.56
2022-12-17T01:31:31.392Z,99993.00
2022-12-17T01:34:20.080Z,100002.41
2022-12-17T01:37:06.372Z,100012.66
2022-12-17T01:39:52.616Z,100018.63
2022-12-17T01:42:39.562Z,100016.03
2022-12-17T01:45:29.276Z,100016.06
2022-12-17T01:48:19.921Z,100018.63
2022-12-17T01:51:09.590Z,100017.78
2022-12-17T01:54:00.276Z,100008.34
2022-12-17T01:56:46.671Z,100014.34
2022-12-17T01:59:37.125Z,100020.34
2022-12-17T02:02:25.330Z,100027.19
2022-12-17T02:05:11.562Z,100021.19
2022-12-17T02:08:07.912Z,100025.44
2022-12-17T02:11:03.139Z,100024.59
2022-12-17T02:13:54.465Z,100024.59
2022-12-17T02:16:49.247Z,100024.59
2022-12-17T02:19:49.385Z,100018.59
2022-12-17T02:22:41.670Z,100017.72
2022-12-17T02:25:35.116Z,100021.13
2022-12-17T02:28:22.828Z,100017.72
2022-12-17T02:31:10.242Z,100019.41
2022-12-17T02:33:56.396Z,100021.16
2022-12-17T02:36:42.455Z,100012.59
2022-12-17T02:39:28.710Z,100012.59
2022-12-17T02:42:16.644Z,100007.47
2022-12-17T02:45:05.346Z,100004.91
2022-12-17T02:47:51.282Z,99999.78
2022-12-17T02:50:37.598Z,100001.47
2022-12-17T02:53:23.725Z,99988.66
2022-12-17T02:56:24.166Z,99992.03
2022-12-17T02:59:10.191Z,99998.03
2022-12-17T03:01:58.841Z,99995.47
2022-12-17T03:04:44.722Z,99992.03
2022-12-17T03:07:30.455Z,100002.34
2022-12-17T03:10:16.384Z,100007.44
2022-12-17T03:13:02.206Z,99998.88
2022-12-17T03:15:48.654Z,100000.63
2022-12-17T03:18:35.897Z,99991.22
2022-12-17T03:21:21.661Z,99991.22
2022-12-17T03:24:07.600Z,99998.03
2022-12-17T03:26:53.728Z,99980.09
2022-12-17T03:29:39.378Z,99976.63
2022-12-17T03:32:25.163Z,99977.50
2022-12-17T03:35:12.433Z,99970.66
2022-12-17T03:37:58.148Z,99954.41
2022-12-17T03:40:43.708Z,99967.22
2022-12-17T03:43:30.893Z,99977.50
2022-12-17T03:46:16.522Z,99986.09
2022-12-17T03:49:02.553Z,99989.47
2022-12-17T03:51:49.593Z,99982.63
2022-12-17T03:54:35.299Z,99991.16
2022-12-17T03:57:20.965Z,99996.31
2022-12-17T04:00:07.141Z,100018.50
2022-12-17T04:02:59.605Z,100040.75
2022-12-17T04:05:45.586Z,100043.31
2022-12-17T04:08:32.660Z,100061.28
2022-12-17T04:11:18.773Z,100100.66
2022-12-17T04:14:04.815Z,100139.16
2022-12-17T04:16:50.830Z,100162.28
2022-12-17T04:19:36.426Z,100158.84
2022-12-17T04:22:22.424Z,100148.56
2022-12-17T04:25:10.186Z,100140.06
2022-12-17T04:27:56.279Z,100130.63
2022-12-17T04:30:42.035Z,100118.63
2022-12-17T04:33:27.646Z,100109.22
2022-12-17T04:36:13.722Z,100103.22
2022-12-17T04:38:59.327Z,100093.81
2022-12-17T04:41:46.499Z,100095.50
2022-12-17T04:44:32.319Z,100104.94
2022-12-17T04:47:19.492Z,100110.06
2022-12-17T04:50:05.532Z,100112.63
2022-12-17T04:52:51.022Z,100110.03
2022-12-17T04:55:36.694Z,100120.31
2022-12-17T04:58:24.894Z,100100.63
2022-12-17T05:01:11.304Z,100098.06
2022-12-17T05:03:58.275Z,100093.78
2022-12-17T05:06:44.527Z,100100.66
2022-12-17T05:09:30.098Z,100106.59
2022-12-17T05:12:17.050Z,100113.47
2022-12-17T05:15:04.508Z,100108.31
2022-12-17T05:18:04.611Z,100108.34
2022-12-17T05:20:50.982Z,100113.47
2022-12-17T05:23:38.230Z,100115.22
2022-12-17T05:26:26.113Z,100119.47
2022-12-17T05:29:15.816Z,100128.03
2022-12-17T05:32:03.700Z,100129.75
2022-12-17T05:34:51.598Z,100124.59
2022-12-17T05:37:38.244Z,100126.31
2022-12-17T05:40:37.163Z,100119.44
2022-12-17T05:43:25.414Z,100116.03
2022-12-17T05:46:11.365Z,100117.75
2022-12-17T05:48:58.820Z,100127.16
2022-12-17T05:51:45.062Z,100125.47
2022-12-17T05:54:31.287Z,100124.59
2022-12-17T05:57:17.517Z,100141.72
2022-12-17T06:00:04.380Z,100161.38
2022-12-17T06:02:57.962Z,100155.38
2022-12-17T06:05:47.819Z,100152.81
2022-12-17T06:08:33.564Z,100165.63
2022-12-17T06:11:20.144Z,100167.34
2022-12-17T06:14:06.055Z,100176.75
2022-12-17T06:16:52.044Z,100164.78
2022-12-17T06:19:38.645Z,100165.63
2022-12-17T06:22:30.142Z,100180.13
2022-12-17T06:25:15.520Z,100191.22
2022-12-17T06:28:01.524Z,100191.22
2022-12-17T06:30:47.475Z,100193.78
2022-12-17T06:33:38.945Z,100198.09
2022-12-17T06:36:36.839Z,100195.53
2022-12-17T06:39:24.082Z,100194.66
2022-12-17T06:42:06.239Z,100191.22
2022-12-17T06:44:52.045Z,100185.19
2022-12-17T06:47:37.948Z,100186.88
2022-12-17T06:50:25.062Z,100180.84
2022-12-17T06:53:18.243Z,100184.28
2022-12-17T06:56:05.511Z,100189.41
2022-12-17T06:58:51.478Z,100193.69
2022-12-17T07:01:37.210Z,100203.97
2022-12-17T07:04:32.205Z,100196.25
2022-12-17T07:07:18.147Z,100203.94
2022-12-17T07:10:06.845Z,100203.97
2022-12-17T07:13:05.284Z,100204.88
2022-12-17T07:15:51.663Z,100195.53
2022-12-17T07:18:37.443Z,100200.66
2022-12-17T07:21:23.443Z,100211.81
2022-12-17T07:24:09.662Z,100216.97
2022-12-17T07:26:55.506Z,100233.22
2022-12-17T07:29:43.012Z,100241.78
2022-12-17T07:32:29.474Z,100239.25
2022-12-17T07:35:21.250Z,100244.38
2022-12-17T07:38:06.822Z,100256.38
2022-12-17T07:40:53.113Z,100246.97
2022-12-17T07:43:39.249Z,100249.53
2022-12-17T07:46:27.082Z,100257.28
2022-12-17T07:49:13.150Z,100258.94
2022-12-17T07:51:55.596Z,100271.78
2022-12-17T07:54:41.867Z,100268.38
2022-12-17T07:57:27.719Z,100265.84
2022-12-17T08:00:13.866Z,100277.03
2022-12-17T08:03:01.900Z,100289.94
2022-12-17T08:05:47.962Z,100291.63
2022-12-17T08:08:33.916Z,100300.22
2022-12-17T08:11:19.955Z,100295.94
2022-12-17T08:14:05.924Z,100307.03
2022-12-17T08:16:51.975Z,100311.28
2022-12-17T08:19:40.806Z,100319.84
2022-12-17T08:22:26.665Z,100329.25
2022-12-17T08:25:12.802Z,100333.50
2022-12-17T08:27:58.873Z,100336.09
2022-12-17T08:30:44.875Z,100336.06
2022-12-17T08:33:30.641Z,100341.25
2022-12-17T08:36:17.009Z,100344.72
2022-12-17T08:39:04.354Z,100342.13
2022-12-17T08:41:54.454Z,100346.44
2022-12-17T08:44:40.723Z,100352.47
2022-12-17T08:47:26.594Z,100362.69
2022-12-17T08:50:12.766Z,100364.38
2022-12-17T08:52:59.840Z,100361.00
2022-12-17T08:55:45.866Z,100358.44
2022-12-17T08:58:31.617Z,100353.31
2022-12-17T09:01:18.706Z,100361.94
2022-12-17T09:04:04.824Z,100353.34
2022-12-17T09:06:50.843Z,100358.53
2022-12-17T09:09:38.776Z,100355.16
2022-12-17T09:12:24.544Z,100354.38
2022-12-17T09:15:10.083Z,100350.09
2022-12-17T09:18:01.070Z,100356.97
2022-12-17T09:20:46.854Z,100362.13
2022-12-17T09:23:34.997Z,100363.88
2022-12-17T09:26:25.051Z,100376.81
2022-12-17T09:29:11.398Z,100370.06
2022-12-17T09:31:57.053Z,100372.66
2022-12-17T09:34:42.633Z,100367.56
2022-12-17T09:37:27.927Z,100382.22
2022-12-17T09:40:13.482Z,100384.88
2022-12-17T09:43:10.808Z,100378.91
2022-12-17T09:46:05.541Z,100375.56
2022-12-17T09:48:59.562Z,100374.72
2022-12-17T09:51:48.796Z,100387.56
2022-12-17T09:54:41.315Z,100380.72
2022-12-17T09:57:47.767Z,100385.06
2022-12-17T10:00:38.957Z,100379.03
2022-12-17T10:03:39.403Z,100385.00
2022-12-17T10:06:29.248Z,100382.41
2022-12-17T10:09:19.201Z,100382.38
2022-12-17T10:12:04.884Z,100381.47
2022-12-17T10:14:51.164Z,100391.78
2022-12-17T10:17:45.916Z,100399.53
2022-12-17T10:20:39.662Z,100402.97
2022-12-17T10:23:25.855Z,100407.25
2022-12-17T10:26:12.924Z,100408.13
2022-12-17T10:28:59.307Z,100403.88
2022-12-17T10:31:48.960Z,100406.38
2022-12-17T10:34:39.435Z,100410.59
2022-12-17T10:37:36.920Z,100412.13
2022-12-17T10:40:38.959Z,100404.44
2022-12-17T10:43:39.534Z,100397.53
2022-12-17T10:46:25.712Z,100406.09
2022-12-17T10:49:22.952Z,100402.75
2022-12-17T10:52:10.177Z,100407.91
2022-12-17T10:54:57.144Z,100409.59
2022-12-17T10:57:48.693Z,100400.94
2022-12-17T11:00:49.001Z,100399.09
2022-12-17T11:03:44.856Z,100417.94
2022-12-17T11:06:36.249Z,100418.78
2022-12-17T11:09:40.314Z,100424.84
2022-12-17T11:12:30.736Z,100430.88
2022-12-17T11:15:22.969Z,100432.53
2022-12-17T11:18:11.527Z,100427.44
2022-12-17T11:21:07.714Z,100435.13
2022-12-17T11:23:56.229Z,100429.06
2022-12-17T11:26:45.617Z,100440.13
2022-12-17T11:29:32.931Z,100441.81
2022-12-17T11:32:33.844Z,100442.66
2022-12-17T11:35:29.091Z,100437.56
2022-12-17T11:38:23.692Z,100448.66
2022-12-17T11:41:13.124Z,100445.13
2022-12-17T11:44:07.961Z,100450.13
2022-12-17T11:47:04.111Z,100450.06
2022-12-17T11:50:00.761Z,100446.66
2022-12-17T11:52:53.801Z,100433.84
2022-12-17T11:55:49.035Z,100440.72
2022-12-17T11:58:42.834Z,100455.31
2022-12-17T12:01:42.901Z,100462.84
2022-12-17T12:04:40.681Z,100478.09
2022-12-17T12:07:36.976Z,100489.03
2022-12-17T12:10:30.684Z,100478.66
2022-12-17T12:13:28.761Z,100478.69
2022-12-17T12:16:25.606Z,100487.25
2022-12-17T12:19:22.721Z,100490.66
2022-12-17T12:22:16.867Z,100494.03
2022-12-17T12:25:22.533Z,100505.88
2022-12-17T12:28:19.574Z,100507.56
2022-12-17T12:31:17.281Z,100510.91
2022-12-17T12:34:23.919Z,100510.78
2022-12-17T12:37:12.160Z,100505.53
2022-12-17T12:40:05.790Z,100508.97
2022-12-17T12:42:58.364Z,100520.75
2022-12-17T12:45:55.729Z,100513.81
2022-12-17T12:48:55.702Z,100518.00
2022-12-17T12:51:44.913Z,100512.03
2022-12-17T12:54:44.844Z,100510.31
2022-12-17T12:57:51.467Z,100527.41
2022-12-17T13:00:48.167Z,100524.81
2022-12-17T13:03:49.506Z,100519.78
2022-12-17T13:06:40.764Z,100519.81
2022-12-17T13:09:30.679Z,100521.56
2022-12-17T13:12:20.583Z,100533.53
2022-12-17T13:14:55.185Z,100545.47
2022-12-17T13:17:32.750Z,100546.38
2022-12-17T13:20:06.119Z,100550.59
2022-12-17T13:22:35.042Z,100545.47
2022-12-17T13:25:19.703Z,100531.78
2022-12-17T13:27:48.782Z,100529.94
2022-12-17T13:30:32.204Z,100545.38
2022-12-17T13:33:19.521Z,100546.25
2022-12-17T13:36:00.178Z,100557.34
2022-12-17T13:38:37.516Z,100557.34
2022-12-17T13:41:10.874Z,100560.69
2022-12-17T13:43:46.430Z,100579.50
2022-12-17T13:46:23.749Z,100584.59
2022-12-17T13:48:58.088Z,100578.59
2022-12-17T13:51:28.921Z,100574.41
2022-12-17T13:54:00.388Z,100583.78
2022-12-17T13:56:32.511Z,100586.38
2022-12-17T13:59:08.427Z,100595.72
2022-12-17T14:01:46.113Z,100599.06
2022-12-17T14:04:23.052Z,100610.16
2022-12-17T14:06:53.919Z,100602.41
2022-12-17T14:09:24.114Z,100593.84
2022-12-17T14:12:11.576Z,100601.56
2022-12-17T14:14:42.507Z,100614.22
2022-12-17T14:17:20.364Z,100612.44
2022-12-17T14:19:53.536Z,100621.75
2022-12-17T14:22:31.763Z,100618.28
2022-12-17T14:25:00.389Z,100625.13
2022-12-17T14:27:33.850Z,100626.03
2022-12-17T14:30:04.489Z,100632.78
2022-12-17T14:32:36.362Z,100630.19
2022-12-17T14:35:05.719Z,100629.28
2022-12-17T14:37:34.526Z,100636.13
2022-12-17T14:40:05.604Z,100642.94
2022-12-17T14:42:38.416Z,100638.56
2022-12-17T14:45:22.825Z,100644.53
2022-12-17T14:47:55.510Z,100653.06
2022-12-17T14:50:31.195Z,100653.00
2022-12-17T14:53:04.536Z,100658.03
2022-12-17T14:55:36.341Z,100661.44
2022-12-17T14:58:19.960Z,100662.16
2022-12-17T15:00:51.972Z,100664.72
2022-12-17T15:03:24.129Z,100652.81
2022-12-17T15:05:59.621Z,100663.03
2022-12-17T15:08:31.284Z,100667.28
2022-12-17T15:10:59.294Z,100668.09
2022-12-17T15:13:29.628Z,100671.50
2022-12-17T15:15:59.066Z,100667.25
2022-12-17T15:18:27.576Z,100675.81
2022-12-17T15:20:56.383Z,100681.81
2022-12-17T15:23:25.471Z,100686.88
2022-12-17T15:25:55.618Z,100692.00
2022-12-17T15:28:25.253Z,100693.63
2022-12-17T15:30:55.422Z,100702.16
2022-12-17T15:33:23.912Z,100705.53
2022-12-17T15:35:52.626Z,100708.06
2022-12-17T15:38:21.198Z,100716.50
2022-12-17T15:40:49.592Z,100724.03
2022-12-17T15:43:16.956Z,100728.13
2022-12-17T15:45:47.422Z,100731.44
2022-12-17T15:48:19.066Z,100731.41
2022-12-17T15:50:47.772Z,100737.41
2022-12-17T15:53:16.715Z,100742.59
2022-12-17T15:55:45.257Z,100744.25
2022-12-17T15:58:14.078Z,100741.59
2022-12-17T16:00:42.537Z,100742.44
2022-12-17T16:03:10.953Z,100754.38
2022-12-17T16:05:40.921Z,100756.03
2022-12-17T16:08:09.507Z,100769.44
2022-12-17T16:10:39.250Z,100758.84
2022-12-17T16:13:07.648Z,100751.84
2022-12-17T16:15:36.337Z,100761.22
2022-12-17T16:18:06.696Z,100775.63
2022-12-17T16:20:35.254Z,100778.97
2022-12-17T16:23:05.251Z,100783.16
2022-12-17T16:25:33.765Z,100794.28
2022-12-17T16:28:02.243Z,100792.56
2022-12-17T16:30:30.634Z,100802.78
2022-12-17T16:32:59.879Z,100812.19
2022-12-17T16:35:29.618Z,100811.34
2022-12-17T16:37:58.042Z,100808.69
2022-12-17T16:40:29.399Z,100818.78
2022-12-17T16:42:57.761Z,100814.41
2022-12-17T16:45:26.282Z,100824.66
2022-12-17T16:47:54.788Z,100821.28
2022-12-17T16:50:23.217Z,100819.47
2022-12-17T16:52:52.006Z,100815.09
2022-12-17T16:55:20.527Z,100813.31
2022-12-17T16:57:50.113Z,100812.44
2022-12-17T17:00:18.946Z,100815.81
2022-12-17T17:02:53.426Z,100815.81
2022-12-17T17:05:22.177Z,100833.63
2022-12-17T17:07:50.574Z,100832.69
2022-12-17T17:10:19.028Z,100837.75
2022-12-17T17:12:47.248Z,100835.13
2022-12-17T17:15:17.193Z,100829.06
2022-12-17T17:17:54.029Z,100829.81
2022-12-17T17:20:24.611Z,100838.25
2022-12-17T17:22:52.964Z,100846.72
2022-12-17T17:25:21.244Z,100837.25
2022-12-17T17:27:49.715Z,100840.50
2022-12-17T17:30:19.556Z,100843.88
2022-12-17T17:32:47.834Z,100858.38
2022-12-17T17:35:16.597Z,100849.78
2022-12-17T17:37:44.946Z,100857.44
2022-12-17T17:40:14.587Z,100865.06
2022-12-17T17:42:46.173Z,100864.25
2022-12-17T17:45:19.840Z,100873.63
2022-12-17T17:47:48.291Z,100870.91
2022-12-17T17:50:16.526Z,100878.41
2022-12-17T17:52:44.956Z,100882.59
2022-12-17T17:55:13.240Z,100891.91
2022-12-17T17:57:42.194Z,100903.78
2022-12-17T18:00:12.687Z,100908.84
2022-12-17T18:02:42.949Z,100906.22
2022-12-17T18:05:11.561Z,100912.94
2022-12-17T18:07:40.060Z,100916.25
2022-12-17T18:10:09.636Z,100911.03
2022-12-17T18:12:55.357Z,100924.53
2022-12-17T18:15:23.736Z,100923.53
2022-12-17T18:17:53.693Z,100932.91
2022-12-17T18:20:21.978Z,100936.22
2022-12-17T18:22:50.694Z,100936.13
2022-12-17T18:25:19.151Z,100945.56
2022-12-17T18:27:47.829Z,100946.44
2022-12-17T18:30:17.366Z,100951.44
2022-12-17T18:32:46.189Z,100963.34
2022-12-17T18:35:16.026Z,100965.81
2022-12-17T18:37:44.589Z,100981.06
2022-12-17T18:40:12.887Z,100980.13
2022-12-17T18:42:58.537Z,100985.97
2022-12-17T18:45:26.941Z,100984.97
2022-12-17T18:47:55.233Z,100993.44
2022-12-17T18:50:26.050Z,100996.72
2022-12-17T18:52:54.574Z,101003.47
2022-12-17T18:55:23.778Z,101007.16
2022-12-17T18:57:52.024Z,101019.81
2022-12-17T19:00:20.494Z,101009.47
2022-12-17T19:02:48.753Z,101019.69
2022-12-17T19:05:17.346Z,101024.75
2022-12-17T19:07:47.574Z,101030.63
2022-12-17T19:10:15.898Z,101039.81
2022-12-17T19:12:44.153Z,101038.69
2022-12-17T19:15:12.394Z,101041.13
2022-12-17T19:17:41.537Z,101048.66
2022-12-17T19:20:10.852Z,101056.38
2022-12-17T19:22:39.566Z,101055.50
2022-12-17T19:25:10.615Z,101055.47
2022-12-17T19:27:38.828Z,101053.66
2022-12-17T19:30:08.981Z,101057.13
2022-12-17T19:32:37.438Z,101052.78
2022-12-17T19:35:06.893Z,101060.72
2022-12-17T19:37:35.223Z,101064.22
2022-12-17T19:40:03.576Z,101064.38
2022-12-17T19:42:37.436Z,101072.09
2022-12-17T19:45:06.776Z,101072.91
2022-12-17T19:47:34.985Z,101075.41
2022-12-17T19:50:03.476Z,101074.53
2022-12-17T19:52:31.783Z,101080.56
2022-12-17T19:55:00.115Z,101085.81
2022-12-17T19:57:28.503Z,101087.41
2022-12-17T19:59:58.358Z,101095.69
2022-12-17T20:02:32.331Z,101093.06
2022-12-17T20:05:01.574Z,101106.56
2022-12-17T20:07:30.134Z,101114.97
2022-12-17T20:09:58.453Z,101106.28
2022-12-17T20:12:26.870Z,101104.47
2022-12-17T20:14:55.165Z,101103.63
2022-12-17T20:17:26.141Z,101103.44
2022-12-17T20:19:57.819Z,101116.94
2022-12-17T20:22:26.453Z,101123.00
2022-12-17T20:24:54.919Z,101130.66
2022-12-17T20:27:23.602Z,101121.31
2022-12-17T20:29:51.959Z,101131.56
2022-12-17T20:32:21.523Z,101125.72
2022-12-17T20:34:51.765Z,101133.25
2022-12-17T20:37:21.247Z,101138.34
2022-12-17T20:39:49.555Z,101144.28
2022-12-17T20:42:18.649Z,101147.66
2022-12-17T20:44:53.058Z,101153.63
2022-12-17T20:47:22.025Z,101157.09
2022-12-17T20:49:51.778Z,101156.34
2022-12-17T20:52:20.580Z,101164.88
2022-12-17T20:54:49.730Z,101178.56
2022-12-17T20:57:18.280Z,101175.09
2022-12-17T20:59:46.818Z,101176.84
2022-12-17T21:02:15.386Z,101192.16
2022-12-17T21:04:44.271Z,101186.09
2022-12-17T21:07:14.427Z,101192.91
2022-12-17T21:09:42.730Z,101199.75
2022-12-17T21:12:13.561Z,101182.63
2022-12-17T21:14:42.025Z,101191.25
2022-12-17T21:17:10.412Z,101189.59
2022-12-17T21:19:38.979Z,101191.31
2022-12-17T21:22:07.446Z,101192.16
2022-12-17T21:24:42.320Z,101196.50
2022-12-17T21:27:14.930Z,101194.78
2022-12-17T21:29:43.659Z,101195.56
2022-12-17T21:32:12.012Z,101204.31
2022-12-17T21:34:40.788Z,101206.19
2022-12-17T21:37:11.386Z,101205.34
2022-12-17T21:39:41.157Z,101206.09
2022-12-17T21:42:26.885Z,101205.22
2022-12-17T21:44:55.286Z,101208.56
2022-12-17T21:47:24.039Z,101211.06
2022-12-17T21:49:52.307Z,101212.81
2022-12-17T21:52:20.664Z,101212.81
2022-12-17T21:54:50.340Z,101211.06
2022-12-17T21:57:18.982Z,101217.91
2022-12-17T21:59:48.239Z,101217.06
2022-12-17T22:02:17.340Z,101222.19
2022-12-17T22:04:46.139Z,101223.16
2022-12-17T22:07:26.663Z,101224.94
2022-12-17T22:10:38.942Z,101230.19
2022-12-17T22:13:10.008Z,101237.19
2022-12-17T22:15:42.735Z,101233.09
2022-12-17T22:18:16.832Z,101231.44
2022-12-17T22:20:45.345Z,101229.03
2022-12-17T22:23:15.666Z,101235.94
2022-12-17T22:25:45.691Z,101244.59
2022-12-17T22:28:14.904Z,101244.75
2022-12-17T22:31:00.667Z,101243.94
2022-12-17T22:33:34.098Z,101240.59
2022-12-17T22:37:46.422Z,101244.97
2022-12-17T22:43:26.865Z,101245.06
2022-12-17T22:44:49.750Z,101251.13
2022-12-17T22:45:09.941Z,101263.19
2022-12-17T22:47:39.375Z,101257.25
2022-12-17T22:50:08.450Z,101264.19
2022-12-17T22:52:37.561Z,101271.16
2022-12-17T22:55:07.706Z,101262.72
2022-12-17T22:57:38.599Z,101273.06
2022-12-17T23:00:13.901Z,101270.47
2022-12-17T23:02:45.614Z,101272.41
2022-12-17T23:05:14.680Z,101275.91
2022-12-17T23:07:43.161Z,101285.38
2022-12-17T23:10:12.032Z,101291.47
2022-12-17T23:12:54.466Z,101293.34
2022-12-17T23:15:27.703Z,101290.84
2022-12-17T23:17:58.251Z,101294.31
2022-12-17T23:20:28.021Z,101292.72
2022-12-17T23:22:57.019Z,101299.00
2022-12-17T23:25:25.800Z,101302.50
2022-12-17T23:27:56.257Z,101297.47
2022-12-17T23:30:24.787Z,101294.94
2022-12-17T23:32:53.492Z,101287.25
2022-12-17T23:35:22.011Z,101290.69
2022-12-17T23:37:50.634Z,101296.72
2022-12-17T23:40:19.166Z,101305.44
2022-12-17T23:42:47.647Z,101306.44
2022-12-17T23:45:17.661Z,101296.22
2022-12-17T23:47:45.857Z,101302.28
2022-12-17T23:50:14.460Z,101303.97
2022-12-17T23:52:42.851Z,101315.97
2022-12-17T23:55:11.764Z,101322.00
2022-12-17T23:57:41.161Z,101317.00
